Decoded Metar for KLWC (LAWRENCE in KS, USA) (IATA:LWC) | Meteo·Mobile Aviation Weather
aviador You're here:

KLWC Decoded Metar

LAWRENCE in KS, USA
Report Time2018-12-11 01:52:00
UTC Time2018-12-11 02:00:43
Flight Rules vfr VFR
WindCalm
Visibility9999 m
Phenomena:N/A
Clouds:N/A
Expected CloudBase > 1,200 ft AGL from Temp-Dew spread
CeilingNone
Temp-3°C (ISA -16)
Dew Point-6°C (80% RH)
AAT-5.7°C
QNH1024 hPa
Density Alt-1,496 ft
Elevation830 ft
Report Wrong Elevation
Raw Report
KLWC 110152Z AUTO 00000KT 10SM CLR M03/M06 A3025 RMK AO2 SLP257
T10331061=

Extra information for KLWC:More info

Metar Taf Metar & Taf Last 4 Metars F.Rules Stats Wind Profile Meteogram Temp Stats Airport Information Weather charts Add Link Nearby VenuesMetar ALERT Operation Metar Decoded Social comments

AIRNAV info for KLWC
GUT Works, LLC